createdAt,value
2017-12-20T00:00:49.596Z,52.70
2017-12-20T00:03:17.125Z,54.67
2017-12-20T00:05:44.825Z,57.53
2017-12-20T00:08:12.339Z,51.90
2017-12-20T00:10:39.918Z,50.50
2017-12-20T00:13:07.517Z,50.13
2017-12-20T00:15:35.040Z,56.70
2017-12-20T00:18:02.708Z,47.17
2017-12-20T00:20:30.232Z,52.63
2017-12-20T00:22:57.822Z,48.37
2017-12-20T00:25:25.624Z,50.50
2017-12-20T00:27:53.152Z,48.60
2017-12-20T00:30:20.691Z,46.43
2017-12-20T00:32:48.632Z,45.73
2017-12-20T00:35:16.387Z,46.97
2017-12-20T00:37:43.922Z,44.83
2017-12-20T00:40:11.550Z,42.70
2017-12-20T00:42:39.545Z,47.10
2017-12-20T00:45:07.103Z,51.33
2017-12-20T00:47:34.640Z,49.27
2017-12-20T00:50:02.279Z,51.53
2017-12-20T00:52:29.808Z,54.63
2017-12-20T00:54:57.429Z,50.60
2017-12-20T00:57:24.948Z,48.97
2017-12-20T00:59:52.486Z,52.10
2017-12-20T01:02:20.731Z,50.80
2017-12-20T01:04:48.258Z,52.70
2017-12-20T01:07:15.918Z,46.70
2017-12-20T01:09:43.489Z,46.60
2017-12-20T01:12:11.121Z,51.13
2017-12-20T01:14:38.648Z,53.90
2017-12-20T01:17:06.592Z,50.60
2017-12-20T01:19:34.218Z,53.50
2017-12-20T01:22:01.752Z,50.90
2017-12-20T01:24:29.713Z,51.80
2017-12-20T01:26:57.249Z,47.87
2017-12-20T01:29:24.771Z,52.90
2017-12-20T01:31:52.401Z,48.03
2017-12-20T01:34:19.929Z,53.30
2017-12-20T01:36:47.528Z,52.87
2017-12-20T01:39:15.109Z,49.50
2017-12-20T01:41:42.760Z,51.63
2017-12-20T01:44:10.297Z,52.00
2017-12-20T01:46:37.816Z,48.60
2017-12-20T01:49:05.391Z,50.87
2017-12-20T01:51:33.063Z,52.30
2017-12-20T01:54:00.636Z,49.10
2017-12-20T01:56:28.296Z,48.13
2017-12-20T01:58:55.840Z,47.90
2017-12-20T02:01:23.393Z,48.80
2017-12-20T02:03:50.956Z,51.20
2017-12-20T02:06:18.972Z,49.43
2017-12-20T02:08:46.605Z,53.20
2017-12-20T02:11:14.132Z,53.80
2017-12-20T02:13:42.092Z,51.40
2017-12-20T02:16:09.672Z,50.60
2017-12-20T02:18:37.198Z,52.50
2017-12-20T02:21:05.188Z,53.90
2017-12-20T02:23:32.733Z,51.40
2017-12-20T02:26:00.278Z,52.90
2017-12-20T02:28:28.360Z,53.43
2017-12-20T02:30:55.921Z,46.37
2017-12-20T02:33:30.482Z,50.17
2017-12-20T02:35:58.101Z,43.67
2017-12-20T02:38:35.852Z,51.30
2017-12-20T02:41:07.064Z,47.10
2017-12-20T02:43:34.626Z,42.10
2017-12-20T02:46:02.777Z,46.47
2017-12-20T02:48:30.324Z,45.07
2017-12-20T02:50:57.884Z,42.97
2017-12-20T02:53:25.465Z,41.70
2017-12-20T02:55:53.181Z,43.17
2017-12-20T02:58:20.833Z,39.80
2017-12-20T03:00:48.380Z,41.60
2017-12-20T03:03:16.593Z,40.57
2017-12-20T03:05:44.129Z,39.40
2017-12-20T03:08:11.739Z,35.20
2017-12-20T03:10:39.719Z,37.77
2017-12-20T03:13:07.261Z,35.30
2017-12-20T03:15:34.893Z,42.33
2017-12-20T03:18:02.463Z,39.90
2017-12-20T03:20:30.178Z,41.10
2017-12-20T03:22:57.709Z,41.07
2017-12-20T03:25:25.384Z,45.67
2017-12-20T03:27:52.993Z,47.77
2017-12-20T03:30:20.588Z,45.63
2017-12-20T03:32:48.133Z,42.73
2017-12-20T03:35:15.709Z,47.30
2017-12-20T03:37:43.279Z,46.50
2017-12-20T03:40:10.808Z,49.17
2017-12-20T03:42:38.331Z,48.37
2017-12-20T03:45:05.948Z,49.93
2017-12-20T03:47:33.473Z,49.87
2017-12-20T03:50:00.995Z,50.20
2017-12-20T03:52:28.567Z,48.30
2017-12-20T03:54:56.125Z,47.00
2017-12-20T03:57:24.045Z,48.87
2017-12-20T03:59:51.584Z,51.10
2017-12-20T04:02:19.112Z,47.80
2017-12-20T04:04:47.165Z,45.63
2017-12-20T04:07:14.696Z,46.63
2017-12-20T04:09:42.383Z,48.03
2017-12-20T04:12:09.962Z,44.77
2017-12-20T04:14:37.541Z,48.07
2017-12-20T04:17:05.069Z,49.33
2017-12-20T04:19:32.619Z,49.07
2017-12-20T04:22:00.249Z,49.17
2017-12-20T04:24:27.800Z,53.27
2017-12-20T04:26:55.328Z,48.33
2017-12-20T04:29:22.910Z,50.57
2017-12-20T04:31:50.446Z,49.63
2017-12-20T04:34:18.748Z,49.40
2017-12-20T04:36:46.275Z,55.27
2017-12-20T04:39:13.801Z,51.43
2017-12-20T04:41:41.377Z,55.10
2017-12-20T04:44:08.948Z,51.03
2017-12-20T04:46:36.481Z,56.00
2017-12-20T04:49:04.115Z,51.47
2017-12-20T04:51:31.646Z,54.07
2017-12-20T04:53:59.321Z,55.37
2017-12-20T04:56:26.904Z,56.67
2017-12-20T04:58:54.433Z,56.27
2017-12-20T05:01:21.960Z,61.57
2017-12-20T05:03:49.523Z,60.17
2017-12-20T05:06:17.292Z,59.47
2017-12-20T05:08:44.815Z,55.97
2017-12-20T05:11:12.374Z,54.43
2017-12-20T05:13:39.904Z,65.23
2017-12-20T05:16:07.482Z,54.97
2017-12-20T05:18:35.015Z,57.30
2017-12-20T05:21:02.573Z,60.80
2017-12-20T05:23:30.464Z,53.47
2017-12-20T05:25:57.992Z,55.50
2017-12-20T05:28:25.521Z,54.67
2017-12-20T05:30:53.827Z,52.07
2017-12-20T05:33:21.381Z,55.90
2017-12-20T05:35:49.300Z,52.77
2017-12-20T05:38:17.199Z,57.60
2017-12-20T05:40:44.801Z,61.90
2017-12-20T05:43:12.697Z,49.30
2017-12-20T05:45:40.215Z,49.13
2017-12-20T05:48:08.237Z,45.87
2017-12-20T05:50:35.836Z,47.43
2017-12-20T05:53:03.352Z,44.63
2017-12-20T05:55:30.872Z,46.73
2017-12-20T05:57:58.424Z,46.30
2017-12-20T06:00:26.145Z,45.20
2017-12-20T06:02:53.723Z,52.10
2017-12-20T06:05:21.252Z,45.50
2017-12-20T06:07:48.772Z,57.27
2017-12-20T06:10:16.347Z,54.17
2017-12-20T06:12:43.867Z,48.57
2017-12-20T06:15:11.392Z,50.70
2017-12-20T06:17:38.936Z,48.47
2017-12-20T06:20:06.466Z,56.77
2017-12-20T06:22:34.043Z,54.30
2017-12-20T06:25:01.571Z,52.70
2017-12-20T06:27:29.456Z,56.00
2017-12-20T06:29:57.062Z,58.83
2017-12-20T06:32:24.582Z,50.80
2017-12-20T06:34:52.114Z,53.80
2017-12-20T06:37:19.688Z,53.03
2017-12-20T06:39:47.210Z,46.70
2017-12-20T06:42:14.745Z,44.93
2017-12-20T06:44:42.320Z,48.90
2017-12-20T06:47:09.852Z,46.93
2017-12-20T06:49:37.386Z,50.00
2017-12-20T06:52:05.889Z,49.33
2017-12-20T06:54:33.901Z,44.47
2017-12-20T06:57:02.415Z,45.80
2017-12-20T06:59:30.972Z,42.43
2017-12-20T07:01:58.508Z,42.53
2017-12-20T07:04:26.030Z,39.57
2017-12-20T07:06:54.492Z,42.17
2017-12-20T07:09:22.017Z,46.33
2017-12-20T07:11:49.565Z,46.57
2017-12-20T07:14:17.509Z,48.17
2017-12-20T07:16:45.032Z,47.50
2017-12-20T07:19:12.543Z,46.50
2017-12-20T07:21:40.132Z,47.93
2017-12-20T07:24:07.661Z,41.13
2017-12-20T07:26:35.180Z,49.23
2017-12-20T07:29:02.732Z,48.23
2017-12-20T07:31:30.271Z,48.53
2017-12-20T07:33:58.070Z,45.47
2017-12-20T07:36:25.677Z,44.47
2017-12-20T07:38:53.204Z,47.00
2017-12-20T07:41:20.714Z,39.10
2017-12-20T07:43:48.467Z,41.30
2017-12-20T07:46:16.139Z,48.60
2017-12-20T07:48:43.666Z,39.93
2017-12-20T07:51:11.257Z,40.30
2017-12-20T07:53:38.883Z,50.37
2017-12-20T07:56:06.520Z,48.20
2017-12-20T07:58:34.395Z,40.77
2017-12-20T08:01:01.911Z,44.53
2017-12-20T08:03:29.436Z,53.17
2017-12-20T08:05:57.350Z,42.40
2017-12-20T08:08:25.207Z,42.40
2017-12-20T08:10:52.738Z,47.10
2017-12-20T08:13:20.628Z,40.27
2017-12-20T08:15:48.157Z,44.73
2017-12-20T08:18:15.679Z,49.10
2017-12-20T08:20:43.285Z,50.00
2017-12-20T08:23:10.804Z,48.60
2017-12-20T08:25:38.327Z,43.03
2017-12-20T08:28:06.216Z,42.90
2017-12-20T08:30:33.749Z,45.97
2017-12-20T08:33:01.284Z,46.47
2017-12-20T08:35:29.205Z,47.77
2017-12-20T08:37:56.738Z,40.60
2017-12-20T08:40:24.284Z,43.07
2017-12-20T08:42:52.194Z,36.20
2017-12-20T08:45:19.782Z,37.50
2017-12-20T08:47:47.441Z,36.80
2017-12-20T08:50:14.967Z,39.33
2017-12-20T08:52:42.864Z,39.63
2017-12-20T08:55:10.396Z,35.90
2017-12-20T08:57:37.924Z,36.57
2017-12-20T09:00:05.492Z,35.60
2017-12-20T09:02:33.028Z,34.67
2017-12-20T09:05:00.604Z,34.30
2017-12-20T09:07:28.175Z,32.97
2017-12-20T09:09:55.696Z,32.53
2017-12-20T09:12:23.211Z,31.03
2017-12-20T09:14:50.804Z,36.10
2017-12-20T09:17:18.323Z,34.80
2017-12-20T09:19:45.848Z,39.53
2017-12-20T09:22:13.547Z,36.57
2017-12-20T09:24:41.084Z,33.93
2017-12-20T09:27:08.666Z,38.97
2017-12-20T09:29:36.217Z,37.67
2017-12-20T09:32:03.756Z,34.47
2017-12-20T09:34:31.308Z,29.77
2017-12-20T09:36:58.838Z,26.00
2017-12-20T09:39:26.412Z,32.80
2017-12-20T09:41:53.943Z,33.20
2017-12-20T09:44:21.476Z,29.40
2017-12-20T09:46:49.186Z,29.43
2017-12-20T09:49:16.724Z,30.10
2017-12-20T09:51:44.257Z,30.20
2017-12-20T09:54:12.203Z,28.97
2017-12-20T09:56:39.833Z,35.83
2017-12-20T09:59:07.402Z,40.90
2017-12-20T10:01:35.955Z,28.80
2017-12-20T10:04:04.606Z,28.57
2017-12-20T10:06:32.946Z,26.70
2017-12-20T10:09:00.504Z,27.63
2017-12-20T10:11:29.252Z,24.00
2017-12-20T10:13:57.224Z,24.77
2017-12-20T10:16:25.599Z,24.57
2017-12-20T10:18:53.119Z,26.43
2017-12-20T10:21:21.351Z,27.93
2017-12-20T10:23:48.896Z,27.60
2017-12-20T10:26:16.430Z,24.13
2017-12-20T10:28:44.042Z,24.27
2017-12-20T10:31:11.574Z,24.40
2017-12-20T10:33:39.332Z,30.90
2017-12-20T10:36:06.930Z,28.00
2017-12-20T10:38:34.445Z,26.27
2017-12-20T10:41:01.990Z,25.30
2017-12-20T10:43:29.543Z,21.50
2017-12-20T10:45:57.125Z,21.27
2017-12-20T10:48:24.639Z,25.17
2017-12-20T10:50:52.171Z,24.03
2017-12-20T10:53:19.721Z,23.27
2017-12-20T10:55:47.721Z,22.40
2017-12-20T10:58:15.240Z,23.67
2017-12-20T11:00:42.758Z,21.30
2017-12-20T11:03:10.343Z,22.30
2017-12-20T11:05:37.871Z,25.80
2017-12-20T11:08:06.079Z,22.77
2017-12-20T11:10:33.636Z,22.47
2017-12-20T11:13:01.172Z,17.93
2017-12-20T11:15:29.121Z,21.40
2017-12-20T11:17:56.668Z,23.37
2017-12-20T11:20:24.222Z,25.27
2017-12-20T11:22:51.808Z,20.87
2017-12-20T11:25:19.435Z,20.43
2017-12-20T11:27:47.307Z,20.57
2017-12-20T11:30:15.218Z,19.20
2017-12-20T11:32:42.752Z,18.63
2017-12-20T11:35:10.263Z,17.37
2017-12-20T11:37:38.201Z,17.47
2017-12-20T11:40:06.152Z,16.83
2017-12-20T11:42:34.128Z,15.80
2017-12-20T11:45:01.701Z,15.90
2017-12-20T11:47:29.241Z,16.53
2017-12-20T11:49:57.418Z,17.80
2017-12-20T11:52:25.040Z,16.30
2017-12-20T11:54:52.560Z,15.17
2017-12-20T11:57:20.085Z,16.10
2017-12-20T11:59:47.665Z,16.27
2017-12-20T12:02:15.300Z,15.13
2017-12-20T12:04:42.816Z,14.17
2017-12-20T12:07:10.409Z,18.43
2017-12-20T12:09:38.206Z,16.43
2017-12-20T12:12:05.731Z,18.63
2017-12-20T12:14:33.446Z,17.97
2017-12-20T12:17:00.985Z,15.70
2017-12-20T12:19:28.507Z,13.80
2017-12-20T12:21:57.206Z,15.10
2017-12-20T12:24:24.775Z,13.20
2017-12-20T12:26:52.301Z,13.33
2017-12-20T12:29:19.888Z,15.33
2017-12-20T12:31:47.408Z,16.67
2017-12-20T12:34:14.980Z,14.67
2017-12-20T12:36:42.551Z,13.00
2017-12-20T12:39:10.902Z,13.87
2017-12-20T12:41:38.487Z,14.03
2017-12-20T12:44:06.452Z,13.77
2017-12-20T12:46:33.972Z,18.87
2017-12-20T12:49:01.613Z,18.90
2017-12-20T12:51:29.882Z,17.27
2017-12-20T12:53:57.402Z,18.10
2017-12-20T12:56:25.359Z,17.40
2017-12-20T12:58:53.622Z,21.10
2017-12-20T13:01:21.138Z,19.50
2017-12-20T13:03:49.083Z,20.43
2017-12-20T13:06:16.610Z,19.43
2017-12-20T13:08:44.132Z,16.50
2017-12-20T13:11:11.672Z,16.90
2017-12-20T13:13:39.250Z,15.77
2017-12-20T13:16:07.635Z,15.67
2017-12-20T13:18:35.177Z,15.37
2017-12-20T13:21:03.119Z,15.63
2017-12-20T13:23:30.652Z,17.07
2017-12-20T13:25:58.169Z,17.53
2017-12-20T13:28:25.734Z,18.23
2017-12-20T13:30:53.252Z,19.20
2017-12-20T13:33:20.784Z,17.73
2017-12-20T13:35:48.673Z,15.97
2017-12-20T13:38:16.221Z,18.20
2017-12-20T13:40:43.741Z,18.30
2017-12-20T13:43:11.312Z,21.60
2017-12-20T13:45:38.839Z,21.43
2017-12-20T13:48:06.375Z,20.57
2017-12-20T13:50:33.951Z,21.60
2017-12-20T13:53:01.777Z,20.27
2017-12-20T13:55:29.304Z,20.40
2017-12-20T13:57:56.883Z,21.37
2017-12-20T14:00:24.420Z,18.50
2017-12-20T14:02:51.948Z,22.93
2017-12-20T14:05:19.532Z,23.60
2017-12-20T14:07:47.109Z,22.50
2017-12-20T14:10:14.699Z,23.37
2017-12-20T14:12:42.237Z,22.50
2017-12-20T14:15:09.784Z,22.23
2017-12-20T14:17:37.356Z,21.33
2017-12-20T14:20:04.876Z,18.20
2017-12-20T14:22:32.398Z,28.60
2017-12-20T14:24:59.972Z,23.83
2017-12-20T14:27:27.496Z,25.17
2017-12-20T14:29:55.022Z,27.57
2017-12-20T14:32:22.588Z,25.43
2017-12-20T14:34:50.098Z,19.07
2017-12-20T14:37:17.675Z,26.53
2017-12-20T14:39:45.196Z,20.73
2017-12-20T14:42:12.734Z,20.60
2017-12-20T14:44:40.283Z,19.87
2017-12-20T14:47:07.804Z,20.97
2017-12-20T14:49:35.373Z,26.33
2017-12-20T14:52:02.924Z,19.97
2017-12-20T14:54:30.470Z,20.67
2017-12-20T14:56:58.383Z,23.17
2017-12-20T14:59:25.922Z,23.33
2017-12-20T15:01:53.450Z,24.30
2017-12-20T15:04:21.003Z,28.57
2017-12-20T15:06:48.554Z,24.50
2017-12-20T15:09:16.540Z,31.73
2017-12-20T15:11:44.072Z,26.07
2017-12-20T15:14:11.602Z,22.60
2017-12-20T15:16:39.186Z,19.90
2017-12-20T15:19:06.704Z,21.00
2017-12-20T15:21:34.223Z,24.70
2017-12-20T15:24:01.780Z,24.80
2017-12-20T15:26:29.323Z,24.87
2017-12-20T15:28:56.848Z,22.87
2017-12-20T15:31:24.418Z,23.60
2017-12-20T15:33:51.951Z,20.60
2017-12-20T15:36:19.520Z,21.87
2017-12-20T15:38:47.075Z,18.10
2017-12-20T15:41:14.630Z,18.63
2017-12-20T15:43:42.227Z,20.80
2017-12-20T15:46:09.749Z,18.27
2017-12-20T15:48:37.278Z,17.10
2017-12-20T15:51:04.824Z,18.80
2017-12-20T15:53:32.368Z,17.10
2017-12-20T15:55:59.923Z,21.47
2017-12-20T15:58:27.470Z,18.70
2017-12-20T16:00:54.996Z,19.30
2017-12-20T16:03:22.552Z,19.80
2017-12-20T16:05:50.123Z,15.93
2017-12-20T16:08:17.659Z,16.37
2017-12-20T16:10:45.290Z,17.90
2017-12-20T16:13:12.821Z,16.83
2017-12-20T16:15:40.368Z,23.60
2017-12-20T16:18:07.928Z,22.10
2017-12-20T16:20:35.485Z,30.20
2017-12-20T16:23:03.076Z,22.17
2017-12-20T16:25:30.613Z,22.17
2017-12-20T16:27:58.153Z,26.10
2017-12-20T16:30:26.136Z,27.20
2017-12-20T16:32:53.656Z,27.23
2017-12-20T16:35:21.275Z,28.40
2017-12-20T16:37:48.816Z,21.53
2017-12-20T16:40:16.346Z,19.03
2017-12-20T16:42:43.925Z,21.73
2017-12-20T16:45:11.462Z,24.90
2017-12-20T16:47:39.447Z,23.87
2017-12-20T16:50:06.996Z,22.40
2017-12-20T16:52:34.525Z,19.37
2017-12-20T16:55:02.125Z,23.53
2017-12-20T16:57:29.656Z,21.37
2017-12-20T16:59:57.202Z,25.87
2017-12-20T17:02:24.794Z,20.50
2017-12-20T17:04:52.355Z,18.97
2017-12-20T17:07:19.879Z,19.50
2017-12-20T17:09:47.424Z,21.20
2017-12-20T17:12:14.961Z,20.70
2017-12-20T17:14:42.537Z,21.17
2017-12-20T17:17:10.059Z,18.50
2017-12-20T17:19:37.586Z,21.47
2017-12-20T17:22:05.140Z,18.30
2017-12-20T17:24:32.684Z,22.20
2017-12-20T17:27:00.258Z,23.30
2017-12-20T17:29:27.781Z,24.70
2017-12-20T17:31:55.299Z,23.60
2017-12-20T17:34:22.850Z,22.07
2017-12-20T17:36:50.378Z,28.33
2017-12-20T17:39:17.988Z,25.10
2017-12-20T17:41:45.517Z,21.40
2017-12-20T17:44:13.039Z,25.67
2017-12-20T17:46:40.593Z,23.70
2017-12-20T17:49:08.198Z,21.47
2017-12-20T17:51:35.724Z,24.37
2017-12-20T17:54:03.244Z,26.87
2017-12-20T17:56:30.818Z,31.13
2017-12-20T17:58:58.344Z,27.80
2017-12-20T18:01:25.883Z,22.40
2017-12-20T18:03:53.428Z,30.17
2017-12-20T18:06:21.003Z,20.90
2017-12-20T18:08:48.529Z,24.77
2017-12-20T18:11:16.059Z,25.20
2017-12-20T18:13:44.012Z,22.57
2017-12-20T18:16:11.536Z,25.00
2017-12-20T18:18:39.071Z,30.70
2017-12-20T18:21:06.652Z,51.33
2017-12-20T18:23:34.176Z,24.50
2017-12-20T18:26:01.713Z,27.33
2017-12-20T18:28:29.296Z,27.07
2017-12-20T18:30:56.821Z,25.33
2017-12-20T18:33:24.363Z,19.60
2017-12-20T18:35:51.935Z,32.10
2017-12-20T18:38:19.470Z,28.90
2017-12-20T18:40:46.995Z,25.90
2017-12-20T18:43:14.571Z,23.60
2017-12-20T18:45:42.124Z,21.40
2017-12-20T18:48:09.672Z,23.97
2017-12-20T18:50:37.239Z,23.23
2017-12-20T18:53:04.785Z,25.80
2017-12-20T18:55:32.312Z,24.40
2017-12-20T18:58:00.108Z,25.80
2017-12-20T19:00:27.683Z,26.07
2017-12-20T19:02:55.211Z,24.70
2017-12-20T19:05:22.876Z,28.30
2017-12-20T19:07:50.392Z,27.20
2017-12-20T19:10:18.002Z,32.47
2017-12-20T19:12:45.580Z,33.07
2017-12-20T19:15:13.175Z,28.40
2017-12-20T19:17:40.747Z,36.47
2017-12-20T19:20:08.263Z,31.23
2017-12-20T19:22:35.780Z,28.33
2017-12-20T19:25:03.355Z,28.20
2017-12-20T19:27:30.879Z,27.17
2017-12-20T19:29:58.468Z,27.00
2017-12-20T19:32:26.024Z,23.10
2017-12-20T19:34:54.409Z,24.00
2017-12-20T19:37:21.979Z,22.17
2017-12-20T19:39:49.504Z,23.13
2017-12-20T19:42:17.088Z,19.93
2017-12-20T19:44:44.666Z,27.00
2017-12-20T19:47:12.179Z,21.47
2017-12-20T19:49:40.198Z,22.97
2017-12-20T19:52:07.832Z,20.97
2017-12-20T19:54:35.612Z,23.00
2017-12-20T19:57:03.188Z,23.37
2017-12-20T19:59:30.964Z,22.90
2017-12-20T20:01:58.613Z,22.07
2017-12-20T20:04:26.166Z,26.57
2017-12-20T20:06:53.710Z,23.10
2017-12-20T20:09:21.320Z,23.80
2017-12-20T20:11:48.928Z,25.53
2017-12-20T20:14:16.469Z,27.90
2017-12-20T20:16:43.987Z,31.37
2017-12-20T20:19:11.612Z,30.73
2017-12-20T20:21:39.139Z,28.57
2017-12-20T20:24:06.702Z,32.00
2017-12-20T20:26:34.469Z,31.40
2017-12-20T20:29:02.074Z,30.07
2017-12-20T20:31:29.654Z,27.17
2017-12-20T20:33:57.171Z,29.77
2017-12-20T20:36:24.748Z,31.50
2017-12-20T20:38:52.323Z,34.73
2017-12-20T20:41:19.839Z,29.13
2017-12-20T20:43:47.402Z,29.93
2017-12-20T20:46:14.942Z,29.67
2017-12-20T20:48:42.557Z,32.20
2017-12-20T20:51:10.089Z,31.53
2017-12-20T20:53:37.617Z,31.30
2017-12-20T20:56:05.192Z,29.20
2017-12-20T20:58:32.772Z,30.20
2017-12-20T21:01:00.365Z,28.50
2017-12-20T21:03:27.888Z,29.57
2017-12-20T21:05:55.420Z,29.03
2017-12-20T21:08:23.011Z,32.53
2017-12-20T21:10:50.581Z,30.57
2017-12-20T21:13:18.146Z,32.17
2017-12-20T21:15:45.799Z,34.10
2017-12-20T21:18:13.323Z,30.77
2017-12-20T21:20:40.846Z,25.13
2017-12-20T21:23:08.415Z,22.30
2017-12-20T21:25:36.002Z,21.83
2017-12-20T21:28:03.528Z,19.13
2017-12-20T21:30:31.108Z,22.20
2017-12-20T21:32:58.628Z,20.70
2017-12-20T21:35:26.169Z,19.67
2017-12-20T21:37:53.733Z,25.60
2017-12-20T21:40:21.362Z,22.53
2017-12-20T21:42:48.958Z,22.53
2017-12-20T21:45:16.518Z,23.13
2017-12-20T21:47:44.147Z,21.90
2017-12-20T21:50:11.681Z,20.23
2017-12-20T21:52:39.249Z,20.60
2017-12-20T21:55:06.823Z,15.90
2017-12-20T21:57:34.335Z,18.63
2017-12-20T22:00:01.895Z,16.67
2017-12-20T22:02:29.419Z,17.60
2017-12-20T22:04:56.964Z,16.53
2017-12-20T22:07:24.493Z,18.53
2017-12-20T22:09:52.110Z,19.00
2017-12-20T22:12:19.636Z,19.60
2017-12-20T22:14:47.151Z,17.40
2017-12-20T22:17:14.804Z,18.60
2017-12-20T22:19:42.328Z,17.77
2017-12-20T22:22:09.886Z,17.47
2017-12-20T22:24:37.489Z,18.40
2017-12-20T22:27:05.017Z,18.57
2017-12-20T22:29:32.544Z,18.43
2017-12-20T22:32:00.119Z,18.40
2017-12-20T22:34:27.644Z,20.40
2017-12-20T22:36:55.201Z,19.80
2017-12-20T22:39:22.761Z,21.20
2017-12-20T22:41:50.289Z,21.87
2017-12-20T22:44:17.861Z,20.70
2017-12-20T22:46:45.384Z,20.03
2017-12-20T22:49:12.918Z,20.20
2017-12-20T22:51:40.516Z,19.57
2017-12-20T22:54:08.077Z,18.60
2017-12-20T22:56:35.715Z,19.03
2017-12-20T22:59:03.246Z,17.80
2017-12-20T23:01:30.764Z,18.27
2017-12-20T23:03:58.385Z,17.33
2017-12-20T23:06:25.954Z,20.87
2017-12-20T23:08:53.544Z,20.10
2017-12-20T23:11:21.169Z,18.70
2017-12-20T23:13:48.713Z,19.67
2017-12-20T23:16:16.264Z,19.37
2017-12-20T23:18:43.846Z,18.77
2017-12-20T23:21:11.420Z,18.90
2017-12-20T23:23:38.954Z,21.07
2017-12-20T23:26:06.470Z,17.60
2017-12-20T23:28:34.032Z,18.90
2017-12-20T23:31:01.586Z,19.67
2017-12-20T23:33:29.107Z,21.73
2017-12-20T23:35:56.652Z,22.13
2017-12-20T23:38:24.179Z,21.67
2017-12-20T23:40:51.722Z,22.23
2017-12-20T23:43:19.327Z,23.13
2017-12-20T23:45:46.896Z,20.97
2017-12-20T23:48:14.560Z,21.90
2017-12-20T23:50:42.147Z,23.53
2017-12-20T23:53:09.759Z,26.43
2017-12-20T23:55:37.283Z,26.13
2017-12-20T23:58:04.804Z,27.70
